createdAt,value
2022-10-17T00:04:54.178Z,6.88
2022-10-17T00:09:55.553Z,6.65
2022-10-17T00:14:56.806Z,4.55
2022-10-17T00:19:59.865Z,3.35
2022-10-17T00:25:01.119Z,5.55
2022-10-17T00:30:04.058Z,3.10
2022-10-17T00:35:06.430Z,3.95
2022-10-17T00:40:08.501Z,5.00
2022-10-17T00:45:23.067Z,5.38
2022-10-17T00:50:25.046Z,5.80
2022-10-17T00:55:30.858Z,3.63
2022-10-17T01:00:32.253Z,5.53
2022-10-17T01:05:34.284Z,5.13
2022-10-17T01:11:05.925Z,4.70
2022-10-17T01:16:32.192Z,5.78
2022-10-17T01:21:58.285Z,5.47
2022-10-17T01:27:26.526Z,3.88
2022-10-17T01:32:49.627Z,4.70
2022-10-17T01:38:09.610Z,4.10
2022-10-17T01:43:36.905Z,4.35
2022-10-17T01:48:42.775Z,3.92
2022-10-17T01:53:56.978Z,3.60
2022-10-17T02:04:07.920Z,4.15
2022-10-17T02:09:24.483Z,4.68
2022-10-17T02:14:39.619Z,4.63
2022-10-17T02:20:12.805Z,5.70
2022-10-17T02:25:35.006Z,4.32
2022-10-17T02:30:58.788Z,4.45
2022-10-17T02:36:06.032Z,5.78
2022-10-17T02:41:11.226Z,4.07
2022-10-17T02:46:20.997Z,5.72
2022-10-17T02:51:52.173Z,3.70
2022-10-17T02:56:59.206Z,3.63
2022-10-17T03:02:04.554Z,6.22
2022-10-17T03:07:05.806Z,5.28
2022-10-17T03:12:08.505Z,4.10
2022-10-17T03:17:09.781Z,5.55
2022-10-17T03:22:11.056Z,3.90
2022-10-17T03:27:12.366Z,7.35
2022-10-17T03:32:13.647Z,4.13
2022-10-17T03:37:15.063Z,6.85
2022-10-17T03:42:16.317Z,5.38
2022-10-17T03:47:17.585Z,6.93
2022-10-17T03:52:19.009Z,3.60
2022-10-17T03:57:20.386Z,3.95
2022-10-17T04:02:21.873Z,4.93
2022-10-17T04:07:23.122Z,3.05
2022-10-17T04:12:24.420Z,5.25
2022-10-17T04:17:25.675Z,3.80
2022-10-17T04:22:27.597Z,10.73
2022-10-17T04:27:29.073Z,4.80
2022-10-17T04:32:30.780Z,4.65
2022-10-17T04:37:32.353Z,4.97
2022-10-17T04:42:33.644Z,3.60
2022-10-17T04:47:34.949Z,5.57
2022-10-17T04:52:37.420Z,7.57
2022-10-17T04:57:38.692Z,7.57
2022-10-17T05:02:39.994Z,5.53
2022-10-17T05:07:41.749Z,5.72
2022-10-17T05:12:43.122Z,6.07
2022-10-17T05:17:44.502Z,5.25
2022-10-17T05:22:45.964Z,7.35
2022-10-17T05:27:47.607Z,5.00
2022-10-17T05:32:53.312Z,5.80
2022-10-17T05:37:54.562Z,5.72
2022-10-17T05:42:55.952Z,6.78
2022-10-17T05:47:57.270Z,5.22
2022-10-17T05:52:58.517Z,9.32
2022-10-17T05:58:01.076Z,8.35
2022-10-17T06:03:02.389Z,5.70
2022-10-17T06:08:03.872Z,6.82
2022-10-17T06:13:05.186Z,4.82
2022-10-17T06:18:06.435Z,3.90
2022-10-17T06:23:07.713Z,5.28
2022-10-17T06:28:10.418Z,6.60
2022-10-17T06:33:11.665Z,7.72
2022-10-17T06:38:12.929Z,5.20
2022-10-17T06:43:14.603Z,6.22
2022-10-17T06:48:15.872Z,7.25
2022-10-17T06:53:17.234Z,10.25
2022-10-17T06:58:18.478Z,11.10
2022-10-17T07:03:19.737Z,6.65
2022-10-17T07:08:21.661Z,15.35
2022-10-17T07:13:23.617Z,12.15
2022-10-17T07:18:24.853Z,14.43
2022-10-17T07:23:26.239Z,11.15
2022-10-17T07:28:28.762Z,9.45
2022-10-17T07:33:30.081Z,12.15
2022-10-17T07:38:31.453Z,6.07
2022-10-17T07:43:33.870Z,7.78
2022-10-17T07:48:35.391Z,9.73
2022-10-17T07:53:42.653Z,12.80
2022-10-17T07:58:45.228Z,7.35
2022-10-17T08:03:48.454Z,14.23
2022-10-17T08:08:49.766Z,9.83
2022-10-17T08:13:51.029Z,8.05
2022-10-17T08:18:52.300Z,7.88
2022-10-17T08:23:53.777Z,9.77
2022-10-17T08:28:55.220Z,6.15
2022-10-17T08:33:56.645Z,7.65
2022-10-17T08:38:57.875Z,5.22
2022-10-17T08:44:12.235Z,8.20
2022-10-17T08:49:28.277Z,7.97
2022-10-17T08:54:47.640Z,9.32
2022-10-17T08:59:54.134Z,3.95
2022-10-17T09:05:24.036Z,8.10
2022-10-17T09:10:43.449Z,6.03
2022-10-17T09:15:57.389Z,5.97
2022-10-17T09:21:12.905Z,5.63
2022-10-17T09:26:14.936Z,4.97
2022-10-17T09:31:34.611Z,7.40
2022-10-17T09:36:39.388Z,3.85
2022-10-17T09:41:52.668Z,6.32
2022-10-17T09:52:29.152Z,3.85
2022-10-17T09:57:52.382Z,6.95
2022-10-17T10:03:12.540Z,9.00
2022-10-17T10:08:19.233Z,6.50
2022-10-17T10:13:20.587Z,8.30
2022-10-17T10:18:25.158Z,11.65
2022-10-17T10:23:26.505Z,3.38
2022-10-17T10:28:36.213Z,5.83
2022-10-17T10:33:48.087Z,7.28
2022-10-17T10:38:55.008Z,9.07
2022-10-17T10:43:56.655Z,2.58
2022-10-17T10:49:00.402Z,2.13
2022-10-17T10:54:11.506Z,3.88
2022-10-17T10:59:25.940Z,4.82
2022-10-17T11:04:36.131Z,3.85
2022-10-17T11:15:06.715Z,4.97
2022-10-17T11:20:19.690Z,4.93
2022-10-17T11:25:31.814Z,3.17
2022-10-17T11:35:49.769Z,3.25
2022-10-17T11:40:55.878Z,2.45
2022-10-17T11:46:04.387Z,3.40
2022-10-17T12:01:54.817Z,3.92
2022-10-17T12:12:28.527Z,2.55
2022-10-17T12:17:38.887Z,3.30
2022-10-17T12:22:47.381Z,4.38
2022-10-17T12:27:50.614Z,3.92
2022-10-17T12:33:30.492Z,4.85
2022-10-17T12:38:31.866Z,4.53
2022-10-17T12:43:39.668Z,3.28
2022-10-17T12:48:44.198Z,4.47
2022-10-17T12:54:15.010Z,5.05
2022-10-17T12:59:26.878Z,4.38
2022-10-17T13:04:29.700Z,3.63
2022-10-17T13:09:38.495Z,3.85
2022-10-17T13:14:42.680Z,6.70
2022-10-17T13:19:45.722Z,4.22
2022-10-17T13:24:48.362Z,3.15
2022-10-17T13:29:49.907Z,2.00
2022-10-17T13:35:09.704Z,3.45
2022-10-17T13:45:48.013Z,2.85
2022-10-17T13:50:53.393Z,3.13
2022-10-17T13:56:15.702Z,3.38
2022-10-17T14:01:21.332Z,1.95
2022-10-17T14:06:27.936Z,3.33
2022-10-17T14:11:38.680Z,4.00
2022-10-17T14:16:42.216Z,1.73
2022-10-17T14:21:49.039Z,6.85
2022-10-17T14:26:55.817Z,3.35
2022-10-17T14:32:10.731Z,3.60
2022-10-17T14:37:24.166Z,4.57
2022-10-17T14:42:26.170Z,4.25
2022-10-17T14:47:42.601Z,4.03
2022-10-17T14:53:02.071Z,3.75
2022-10-17T14:58:17.639Z,3.38
2022-10-17T15:03:19.333Z,3.97
2022-10-17T15:08:23.735Z,4.35
2022-10-17T15:13:28.042Z,3.45
2022-10-17T15:18:32.347Z,3.63
2022-10-17T15:23:33.668Z,5.55
2022-10-17T15:28:34.931Z,3.38
2022-10-17T15:33:36.213Z,4.97
2022-10-17T15:38:37.513Z,4.85
2022-10-17T15:43:38.779Z,4.75
2022-10-17T15:48:43.356Z,3.53
2022-10-17T15:53:45.038Z,4.50
2022-10-17T15:58:46.814Z,5.55
2022-10-17T16:03:50.147Z,3.33
2022-10-17T16:08:52.173Z,4.32
2022-10-17T16:13:55.741Z,5.95
2022-10-17T16:18:57.262Z,4.95
2022-10-17T16:23:59.498Z,4.95
2022-10-17T16:29:02.996Z,7.00
2022-10-17T16:34:06.356Z,6.15
2022-10-17T16:39:07.847Z,5.55
2022-10-17T16:44:14.022Z,5.85
2022-10-17T16:49:18.024Z,4.55
2022-10-17T16:54:19.301Z,5.72
2022-10-17T16:59:20.760Z,5.22
2022-10-17T17:04:22.097Z,5.88
2022-10-17T17:09:23.491Z,5.57
2022-10-17T17:14:24.946Z,6.05
2022-10-17T17:19:26.852Z,10.73
2022-10-17T17:24:28.554Z,8.95
2022-10-17T17:29:29.922Z,9.30
2022-10-17T17:34:35.666Z,7.35
2022-10-17T17:39:36.917Z,7.97
2022-10-17T17:44:38.254Z,9.50
2022-10-17T17:49:39.548Z,10.55
2022-10-17T17:54:41.156Z,8.00
2022-10-17T17:59:42.522Z,9.02
2022-10-17T18:04:43.767Z,10.35
2022-10-17T18:09:45.022Z,11.00
2022-10-17T18:14:47.725Z,14.48
2022-10-17T18:19:49.063Z,11.52
2022-10-17T18:24:50.342Z,9.00
2022-10-17T18:29:51.574Z,12.27
2022-10-17T18:34:52.833Z,8.57
2022-10-17T18:39:55.723Z,10.00
2022-10-17T18:44:57.021Z,8.93
2022-10-17T18:49:58.262Z,9.15
2022-10-17T18:54:59.526Z,8.95
2022-10-17T19:00:00.772Z,10.73
2022-10-17T19:05:02.280Z,13.07
2022-10-17T19:10:03.858Z,12.20
2022-10-17T19:15:05.418Z,10.93
2022-10-17T19:20:07.250Z,8.43
2022-10-17T19:25:09.070Z,9.85
2022-10-17T19:30:12.453Z,7.60
2022-10-17T19:40:15.320Z,9.10
2022-10-17T19:45:16.694Z,7.70
2022-10-17T19:50:17.958Z,8.75
2022-10-17T19:55:19.282Z,8.77
2022-10-17T20:00:20.536Z,15.77
2022-10-17T20:05:25.904Z,10.43
2022-10-17T20:10:28.632Z,8.75
2022-10-17T20:15:30.069Z,9.70
2022-10-17T20:20:33.498Z,8.65
2022-10-17T20:30:45.420Z,13.25
2022-10-17T20:35:46.663Z,10.07
2022-10-17T20:40:47.964Z,9.13
2022-10-17T20:45:51.238Z,7.57
2022-10-17T20:50:54.138Z,9.57
2022-10-17T20:56:08.128Z,9.30
2022-10-17T21:01:10.682Z,9.00
2022-10-17T21:06:12.318Z,9.30
2022-10-17T21:11:15.174Z,10.95
2022-10-17T21:16:18.780Z,12.20
2022-10-17T21:21:29.002Z,8.18
2022-10-17T21:26:33.796Z,7.40
2022-10-17T21:31:39.839Z,9.05
2022-10-17T21:36:41.440Z,13.50
2022-10-17T21:41:44.148Z,7.40
2022-10-17T21:46:46.585Z,7.70
2022-10-17T21:51:48.757Z,7.90
2022-10-17T21:56:50.982Z,8.00
2022-10-17T22:01:52.353Z,9.38
2022-10-17T22:06:53.644Z,10.85
2022-10-17T22:11:56.460Z,6.72
2022-10-17T22:16:57.697Z,9.67
2022-10-17T22:21:58.990Z,14.27
2022-10-17T22:27:00.420Z,10.82
2022-10-17T22:32:01.977Z,7.90
2022-10-17T22:37:03.221Z,11.68
2022-10-17T22:42:04.474Z,7.93
2022-10-17T22:47:05.786Z,6.82
2022-10-17T22:52:07.135Z,10.95
2022-10-17T22:57:08.369Z,9.60
2022-10-17T23:02:09.619Z,10.95
2022-10-17T23:07:12.389Z,8.20
2022-10-17T23:12:13.617Z,10.07
2022-10-17T23:17:15.310Z,9.98
2022-10-17T23:22:16.821Z,12.35
2022-10-17T23:27:18.140Z,7.25
2022-10-17T23:32:20.870Z,8.27
2022-10-17T23:37:22.117Z,12.20
2022-10-17T23:42:23.543Z,6.18
2022-10-17T23:47:24.964Z,6.80
2022-10-17T23:52:26.254Z,9.00
2022-10-17T23:57:27.616Z,6.82
